createdAt,value
2022-09-17T00:04:00.313Z,15.20
2022-09-17T00:09:04.176Z,15.20
2022-09-17T00:14:10.414Z,15.10
2022-09-17T00:19:16.805Z,15.10
2022-09-17T00:24:20.731Z,15.00
2022-09-17T00:29:25.464Z,14.80
2022-09-17T00:34:28.573Z,14.70
2022-09-17T00:39:31.760Z,14.60
2022-09-17T00:44:51.794Z,14.50
2022-09-17T00:49:58.596Z,14.50
2022-09-17T00:55:08.910Z,14.50
2022-09-17T01:00:23.964Z,14.50
2022-09-17T01:05:33.416Z,14.40
2022-09-17T01:11:01.207Z,14.40
2022-09-17T01:16:11.663Z,14.40
2022-09-17T01:21:34.997Z,14.40
2022-09-17T01:26:58.208Z,14.40
2022-09-17T01:32:10.145Z,14.40
2022-09-17T01:37:17.029Z,14.40
2022-09-17T01:42:27.087Z,14.50
2022-09-17T01:47:35.682Z,14.50
2022-09-17T01:52:42.244Z,14.50
2022-09-17T01:57:51.740Z,14.40
2022-09-17T02:03:01.742Z,14.40
2022-09-17T02:08:07.933Z,14.30
2022-09-17T02:13:17.094Z,14.20
2022-09-17T02:18:28.429Z,14.10
2022-09-17T02:23:36.365Z,14.00
2022-09-17T02:28:44.176Z,14.00
2022-09-17T02:33:51.470Z,13.90
2022-09-17T02:39:01.651Z,13.90
2022-09-17T02:44:15.587Z,13.80
2022-09-17T02:49:55.256Z,13.80
2022-09-17T02:55:08.765Z,13.70
2022-09-17T03:00:16.860Z,13.70
2022-09-17T03:05:23.564Z,13.60
2022-09-17T03:10:28.389Z,13.50
2022-09-17T03:15:31.481Z,13.40
2022-09-17T03:20:35.912Z,13.40
2022-09-17T03:25:38.993Z,13.40
2022-09-17T03:30:42.086Z,13.40
2022-09-17T03:35:47.301Z,13.40
2022-09-17T03:40:59.584Z,13.40
2022-09-17T03:46:02.774Z,13.40
2022-09-17T03:51:07.752Z,13.30
2022-09-17T03:56:10.853Z,13.30
2022-09-17T04:01:14.077Z,13.20
2022-09-17T04:06:18.541Z,13.20
2022-09-17T04:11:21.665Z,13.20
2022-09-17T04:16:24.870Z,13.20
2022-09-17T04:21:29.706Z,13.20
2022-09-17T04:26:32.870Z,13.20
2022-09-17T04:31:36.202Z,13.20
2022-09-17T04:36:40.696Z,13.20
2022-09-17T04:41:43.992Z,13.20
2022-09-17T04:46:47.267Z,13.30
2022-09-17T04:51:51.891Z,13.30
2022-09-17T04:56:55.356Z,13.30
2022-09-17T05:01:58.525Z,13.30
2022-09-17T05:07:03.042Z,13.30
2022-09-17T05:12:06.715Z,13.30
2022-09-17T05:17:13.857Z,13.30
2022-09-17T05:22:21.479Z,13.30
2022-09-17T05:27:35.011Z,13.20
2022-09-17T05:32:39.120Z,13.20
2022-09-17T05:37:51.264Z,13.20
2022-09-17T05:43:00.015Z,13.20
2022-09-17T05:48:04.725Z,13.20
2022-09-17T05:53:12.174Z,13.20
2022-09-17T05:58:17.128Z,13.20
2022-09-17T06:03:22.787Z,13.20
2022-09-17T06:08:29.417Z,13.20
2022-09-17T06:13:32.566Z,13.30
2022-09-17T06:18:35.671Z,13.30
2022-09-17T06:23:40.097Z,13.30
2022-09-17T06:28:43.245Z,13.30
2022-09-17T06:33:48.207Z,13.30
2022-09-17T06:38:52.846Z,13.30
2022-09-17T06:43:55.940Z,13.30
2022-09-17T06:48:59.016Z,13.30
2022-09-17T06:54:03.977Z,13.20
2022-09-17T06:59:07.088Z,13.20
2022-09-17T07:04:10.217Z,13.30
2022-09-17T07:09:14.720Z,13.30
2022-09-17T07:14:19.162Z,13.40
2022-09-17T07:19:22.403Z,13.40
2022-09-17T07:24:31.991Z,13.50
2022-09-17T07:29:35.889Z,13.50
2022-09-17T07:34:39.025Z,13.60
2022-09-17T07:39:44.064Z,13.70
2022-09-17T07:44:47.790Z,13.80
2022-09-17T07:49:51.929Z,13.80
2022-09-17T07:54:56.548Z,13.80
2022-09-17T07:59:59.738Z,13.80
2022-09-17T08:05:02.929Z,13.80
2022-09-17T08:10:08.125Z,13.70
2022-09-17T08:15:12.081Z,13.70
2022-09-17T08:20:16.294Z,13.60
2022-09-17T08:25:20.747Z,13.60
2022-09-17T08:30:25.913Z,13.50
2022-09-17T08:35:28.980Z,13.50
2022-09-17T08:40:33.796Z,13.50
2022-09-17T08:45:37.124Z,13.40
2022-09-17T08:50:42.685Z,13.30
2022-09-17T08:55:50.839Z,13.20
2022-09-17T09:00:59.852Z,13.00
2022-09-17T09:06:05.263Z,13.00
2022-09-17T09:11:17.602Z,12.90
2022-09-17T09:16:23.150Z,12.90
2022-09-17T09:21:29.132Z,12.90
2022-09-17T09:26:45.783Z,12.90
2022-09-17T09:32:16.303Z,12.90
2022-09-17T09:37:25.012Z,12.90
2022-09-17T09:42:32.457Z,13.00
2022-09-17T09:47:59.097Z,13.10
2022-09-17T09:53:11.485Z,13.30
2022-09-17T09:58:25.130Z,13.40
2022-09-17T10:03:32.130Z,13.50
2022-09-17T10:08:37.200Z,13.50
2022-09-17T10:13:42.268Z,13.60
2022-09-17T10:18:46.162Z,13.60
2022-09-17T10:23:50.704Z,13.80
2022-09-17T10:28:57.295Z,13.80
2022-09-17T10:34:03.380Z,13.90
2022-09-17T10:39:32.418Z,14.00
2022-09-17T10:44:37.899Z,14.10
2022-09-17T10:49:44.301Z,14.20
2022-09-17T10:55:18.932Z,14.20
2022-09-17T11:00:24.619Z,14.20
2022-09-17T11:05:42.710Z,14.20
2022-09-17T11:10:54.888Z,14.30
2022-09-17T11:16:16.869Z,14.30
2022-09-17T11:21:48.275Z,14.30
2022-09-17T11:27:00.365Z,14.40
2022-09-17T11:32:15.384Z,14.30
2022-09-17T11:37:24.434Z,14.30
2022-09-17T11:42:37.423Z,14.40
2022-09-17T11:47:47.056Z,14.50
2022-09-17T11:53:01.737Z,14.60
2022-09-17T11:58:12.867Z,14.80
2022-09-17T12:03:24.849Z,15.00
2022-09-17T12:08:35.381Z,15.10
2022-09-17T12:13:44.959Z,15.20
2022-09-17T12:18:54.255Z,15.30
2022-09-17T12:24:02.845Z,15.30
2022-09-17T12:29:13.417Z,15.30
2022-09-17T12:34:31.758Z,15.20
2022-09-17T12:39:58.730Z,15.20
2022-09-17T12:45:17.153Z,15.20
2022-09-17T12:50:35.236Z,15.20
2022-09-17T12:55:51.167Z,15.30
2022-09-17T13:01:01.195Z,15.40
2022-09-17T13:06:37.671Z,15.50
2022-09-17T13:11:59.871Z,15.70
2022-09-17T13:17:08.256Z,15.80
2022-09-17T13:22:19.825Z,15.90
2022-09-17T13:27:25.757Z,16.10
2022-09-17T13:32:50.099Z,16.10
2022-09-17T13:37:59.478Z,16.00
2022-09-17T13:43:10.273Z,15.90
2022-09-17T13:48:21.284Z,15.90
2022-09-17T13:53:28.007Z,15.90
2022-09-17T13:58:33.368Z,15.90
2022-09-17T14:03:52.757Z,16.00
2022-09-17T14:08:58.036Z,16.00
2022-09-17T14:14:41.961Z,16.00
2022-09-17T14:19:51.510Z,16.00
2022-09-17T14:24:56.557Z,15.90
2022-09-17T14:30:07.054Z,15.90
2022-09-17T14:35:23.648Z,15.90
2022-09-17T14:40:29.659Z,15.90
2022-09-17T14:45:34.726Z,15.90
2022-09-17T14:50:38.464Z,15.90
2022-09-17T14:55:43.669Z,15.80
2022-09-17T15:00:53.213Z,15.70
2022-09-17T15:05:56.440Z,15.70
2022-09-17T15:11:03.474Z,15.60
2022-09-17T15:16:11.299Z,15.60
2022-09-17T15:21:30.039Z,15.60
2022-09-17T15:26:41.154Z,15.50
2022-09-17T15:31:44.468Z,15.40
2022-09-17T15:37:06.497Z,15.30
2022-09-17T15:42:22.587Z,15.30
2022-09-17T15:47:51.531Z,15.20
2022-09-17T15:53:12.557Z,15.20
2022-09-17T15:58:25.763Z,15.20
2022-09-17T16:04:07.500Z,15.20
2022-09-17T16:09:38.520Z,15.30
2022-09-17T16:14:46.993Z,15.30
2022-09-17T16:19:50.277Z,15.30
2022-09-17T16:24:53.746Z,15.30
2022-09-17T16:30:04.293Z,15.30
2022-09-17T16:35:07.910Z,15.30
2022-09-17T16:40:13.464Z,15.30
2022-09-17T16:45:17.940Z,15.30
2022-09-17T16:50:21.168Z,15.20
2022-09-17T16:55:24.347Z,15.10
2022-09-17T17:00:29.268Z,15.00
2022-09-17T17:05:36.908Z,15.00
2022-09-17T17:10:40.034Z,14.90
2022-09-17T17:15:44.601Z,14.70
2022-09-17T17:20:48.767Z,14.70
2022-09-17T17:25:51.924Z,14.70
2022-09-17T17:30:56.536Z,14.60
2022-09-17T17:36:07.332Z,14.50
2022-09-17T17:41:12.929Z,14.50
2022-09-17T17:46:17.435Z,14.40
2022-09-17T17:51:20.664Z,14.30
2022-09-17T17:56:23.808Z,14.20
2022-09-17T18:01:29.816Z,14.10
2022-09-17T18:06:32.944Z,14.00
2022-09-17T18:11:36.712Z,14.00
2022-09-17T18:16:41.296Z,13.90
2022-09-17T18:21:44.648Z,13.90
2022-09-17T18:26:47.938Z,13.90
2022-09-17T18:31:52.579Z,13.90
2022-09-17T18:36:55.814Z,13.80
2022-09-17T18:41:58.932Z,13.80
2022-09-17T18:47:03.944Z,13.90
2022-09-17T18:52:07.223Z,13.90
2022-09-17T18:57:10.335Z,13.90
2022-09-17T19:02:15.006Z,14.00
2022-09-17T19:07:18.135Z,14.00
2022-09-17T19:12:21.284Z,14.00
2022-09-17T19:17:25.917Z,14.00
2022-09-17T19:22:29.808Z,14.00
2022-09-17T19:27:32.985Z,14.00
2022-09-17T19:32:42.390Z,14.10
2022-09-17T19:37:46.567Z,14.00
2022-09-17T19:42:54.212Z,14.00
2022-09-17T19:48:01.726Z,13.90
2022-09-17T19:53:04.928Z,13.80
2022-09-17T19:58:08.060Z,13.70
2022-09-17T20:03:12.607Z,13.60
2022-09-17T20:08:16.222Z,13.50
2022-09-17T20:13:19.468Z,13.50
2022-09-17T20:18:24.051Z,13.50
2022-09-17T20:23:31.782Z,13.50
2022-09-17T20:28:35.216Z,13.50
2022-09-17T20:33:40.000Z,13.50
2022-09-17T20:44:08.030Z,13.40
2022-09-17T20:49:12.464Z,13.40
2022-09-17T20:54:15.997Z,13.40
2022-09-17T20:59:19.397Z,13.40
2022-09-17T21:04:26.310Z,13.40
2022-09-17T21:09:29.453Z,13.40
2022-09-17T21:14:32.906Z,13.30
2022-09-17T21:19:37.349Z,13.20
2022-09-17T21:24:40.510Z,13.10
2022-09-17T21:29:43.580Z,13.00
2022-09-17T21:34:48.087Z,13.00
2022-09-17T21:39:51.835Z,12.90
2022-09-17T21:44:55.032Z,12.90
2022-09-17T21:49:59.509Z,12.80
2022-09-17T21:55:02.879Z,12.70
2022-09-17T22:00:09.198Z,12.60
2022-09-17T22:05:15.735Z,12.60
2022-09-17T22:10:18.795Z,12.50
2022-09-17T22:15:22.027Z,12.60
2022-09-17T22:20:26.690Z,12.60
2022-09-17T22:25:29.936Z,12.60
2022-09-17T22:30:33.076Z,12.60
2022-09-17T22:35:37.618Z,12.70
2022-09-17T22:40:40.772Z,12.60
2022-09-17T22:45:43.864Z,12.60
2022-09-17T22:50:52.386Z,12.50
2022-09-17T22:55:56.503Z,12.40
2022-09-17T23:01:03.244Z,12.30
2022-09-17T23:06:09.570Z,12.30
2022-09-17T23:11:19.519Z,12.20
2022-09-17T23:16:22.625Z,12.20
2022-09-17T23:21:27.257Z,12.20
2022-09-17T23:26:31.850Z,12.10
2022-09-17T23:31:35.822Z,12.10
2022-09-17T23:36:40.792Z,12.10
2022-09-17T23:41:45.579Z,12.10
2022-09-17T23:46:48.818Z,12.10
2022-09-17T23:51:53.327Z,12.10
2022-09-17T23:56:56.449Z,12.20
